Time;durP1;ratioP1;P1;durP2;ratioP2;P2;SDS_P1;SDS_P2;PMS_P1;PMS_P2;Temp;Humidity;BMP_temperature;BMP_pressure;BME280_temperature;BME280_humidity;BME280_pressure;Samples;Min_cycle;Max_cycle;Signal;HPM_P1;HPM_P2
2022/04/11 00:01:29;;;;;;;9.15;3.40;;;;;;;8.61;44.50;101909.41;4934127;28;123558;-68
2022/04/11 00:03:57;;;;;;;5.07;2.90;;;;;;;8.61;44.71;101910.31;4939236;28;115035;-67
2022/04/11 00:06:24;;;;;;;7.47;3.30;;;;;;;8.59;44.78;101901.53;4942251;28;115556;-68
2022/04/11 00:08:51;;;;;;;7.05;3.42;;;;;;;8.60;44.80;101892.69;4934709;28;124046;-68
2022/04/11 00:11:18;;;;;;;4.63;3.10;;;;;;;8.59;45.18;101901.53;4931476;28;124581;-68
2022/04/11 00:13:45;;;;;;;6.97;3.35;;;;;;;8.59;44.95;101896.25;4936503;28;114653;-67
2022/04/11 00:16:13;;;;;;;6.43;3.35;;;;;;;8.56;45.00;101896.31;4934504;28;113982;-67
2022/04/11 00:18:41;;;;;;;5.15;3.28;;;;;;;8.55;44.84;101894.56;4936257;28;123972;-67
2022/04/11 00:21:08;;;;;;;6.80;3.25;;;;;;;8.52;45.21;101890.22;4937697;28;123867;-67
2022/04/11 00:23:35;;;;;;;6.05;3.17;;;;;;;8.50;45.04;101893.78;4938720;28;115375;-67
2022/04/11 00:26:02;;;;;;;5.38;2.97;;;;;;;8.45;45.30;101887.72;4940722;28;114197;-67
2022/04/11 00:28:29;;;;;;;7.78;3.40;;;;;;;8.43;45.37;101889.53;4941309;28;123851;-67
2022/04/11 00:30:56;;;;;;;7.35;3.20;;;;;;;8.38;45.24;101874.63;4956656;28;122823;-67
2022/04/11 00:33:24;;;;;;;6.32;3.35;;;;;;;8.38;45.34;101882.53;4936045;28;115274;-67
2022/04/11 00:35:51;;;;;;;8.95;3.08;;;;;;;8.36;45.51;101879.06;4952367;28;113086;-67
2022/04/11 00:38:18;;;;;;;6.28;3.33;;;;;;;8.35;45.19;101877.31;4943461;28;124458;-67
2022/04/11 00:40:45;;;;;;;5.65;3.00;;;;;;;8.36;45.56;101868.50;4935986;28;124059;-67
2022/04/11 00:43:30;;;;;;;5.22;3.53;;;;;;;8.35;45.48;101869.38;4954678;28;113272;-67
2022/04/11 00:45:57;;;;;;;6.22;3.45;;;;;;;8.34;45.55;101867.66;4954279;28;113244;-67
2022/04/11 00:48:24;;;;;;;9.38;3.50;;;;;;;8.34;45.24;101865.03;4953299;28;123206;-67
2022/04/11 00:50:56;;;;;;;6.35;3.25;;;;;;;8.32;45.51;101861.53;4928790;28;124082;-67
2022/04/11 00:53:24;;;;;;;7.68;3.47;;;;;;;8.32;45.58;101856.25;4947074;28;115837;-67
2022/04/11 00:55:54;;;;;;;7.68;3.30;;;;;;;8.31;45.43;101859.78;4933117;28;115196;-67
2022/04/11 00:58:21;;;;;;;6.90;3.15;;;;;;;8.30;45.57;101852.75;4952049;28;123560;-67
2022/04/11 01:00:48;;;;;;;8.15;3.38;;;;;;;8.30;45.58;101847.47;4950704;28;122883;-67
2022/04/11 01:03:16;;;;;;;6.75;3.35;;;;;;;8.30;45.58;101847.47;4952925;28;114789;-67
2022/04/11 01:05:43;;;;;;;6.10;3.35;;;;;;;8.30;45.62;101842.19;4938004;28;114122;-67
2022/04/11 01:08:10;;;;;;;6.90;3.92;;;;;;;8.30;45.57;101836.94;4941281;28;125174;-67
2022/04/11 01:10:37;;;;;;;6.95;3.40;;;;;;;8.30;45.73;101842.19;4943158;28;123973;-67
2022/04/11 01:13:05;;;;;;;6.32;3.55;;;;;;;8.29;45.60;101835.22;4933788;28;114931;-67
2022/04/11 01:15:32;;;;;;;6.55;3.45;;;;;;;8.26;45.78;101840.53;4928450;28;114778;-68
2022/04/11 01:18:00;;;;;;;6.97;3.47;;;;;;;8.25;45.73;101833.53;4948664;28;122861;-68
2022/04/11 01:20:27;;;;;;;7.20;3.55;;;;;;;8.24;45.62;101837.06;4950896;28;123661;-68
2022/04/11 01:22:54;;;;;;;6.18;3.42;;;;;;;8.23;45.60;101827.41;4932797;28;115468;-67
2022/04/11 01:25:22;;;;;;;7.25;3.58;;;;;;;8.24;45.73;101830.91;4960245;28;112997;-68
2022/04/11 01:27:51;;;;;;;7.28;3.60;;;;;;;8.23;46.06;101824.78;4952104;28;123209;-68
2022/04/11 01:30:18;;;;;;;7.82;4.07;;;;;;;8.23;46.03;101824.78;4954514;28;123466;-68
2022/04/11 01:32:47;;;;;;;8.05;3.80;;;;;;;8.23;46.21;101824.78;4932807;28;115194;-67
2022/04/11 01:35:20;;;;;;;8.02;3.40;;;;;;;8.23;45.82;101824.78;4947192;28;112729;-67
2022/04/11 01:37:47;;;;;;;6.20;3.58;;;;;;;8.25;46.25;101817.69;4945627;28;124654;-68
2022/04/11 01:40:14;;;;;;;5.40;3.63;;;;;;;8.26;46.16;101823.84;4953323;28;122920;-68
2022/04/11 01:42:44;;;;;;;6.45;3.78;;;;;;;8.28;46.07;101822.91;4948072;28;113973;-68
2022/04/11 01:45:13;;;;;;;7.60;4.07;;;;;;;8.27;45.93;101815.00;4951198;28;114316;-68
2022/04/11 01:47:41;;;;;;;7.13;3.72;;;;;;;8.27;46.02;101826.44;4945711;28;123933;-68
2022/04/11 01:50:10;;;;;;;6.93;3.72;;;;;;;8.28;46.32;101828.16;4949503;28;123019;-68
2022/04/11 01:52:37;;;;;;;7.50;4.28;;;;;;;8.29;46.25;101829.06;4934249;28;114701;-68
2022/04/11 01:55:05;;;;;;;6.03;3.97;;;;;;;8.28;46.23;101828.16;4933942;28;114057;-68
2022/04/11 01:57:48;;;;;;;6.07;4.10;;;;;;;8.29;46.15;101829.94;4934814;28;123126;-68
2022/04/11 02:00:17;;;;;;;6.45;4.10;;;;;;;8.28;46.30;101833.44;4955430;28;123322;-68
2022/04/11 02:02:45;;;;;;;12.32;4.47;;;;;;;8.28;45.93;101829.94;4942694;28;113714;-68
2022/04/11 02:05:12;;;;;;;9.88;4.53;;;;;;;8.27;46.02;101831.72;4948798;28;114293;-68
2022/04/11 02:07:40;;;;;;;9.10;4.80;;;;;;;8.27;46.12;101831.72;4936320;28;123104;-68
2022/04/11 02:10:09;;;;;;;7.00;4.15;;;;;;;8.26;46.36;101822.06;4957264;28;122646;-68
2022/04/11 02:12:36;;;;;;;6.75;4.50;;;;;;;8.25;46.38;101825.63;4959865;28;112366;-68
2022/04/11 02:15:04;;;;;;;7.22;4.20;;;;;;;8.25;46.15;101828.25;4950250;28;113119;-68
2022/04/11 02:17:31;;;;;;;9.52;4.25;;;;;;;8.23;46.00;101824.78;4938430;28;124467;-69
2022/04/11 02:19:58;;;;;;;9.02;4.88;;;;;;;8.21;46.24;101823.91;4955795;28;122851;-69
2022/04/11 02:22:26;;;;;;;7.38;4.47;;;;;;;8.17;46.08;101824.88;4957329;28;113050;-67
2022/04/11 02:24:53;;;;;;;10.70;4.70;;;;;;;8.13;46.07;101828.47;4940719;28;114703;-67
2022/04/11 02:27:21;;;;;;;7.80;4.97;;;;;;;8.10;46.45;101823.25;4954403;28;123652;-67
2022/04/11 02:29:48;;;;;;;9.95;4.93;;;;;;;8.06;46.30;101832.13;4950270;28;123094;-66
2022/04/11 02:32:16;;;;;;;8.80;4.45;;;;;;;8.04;46.49;101828.63;4953059;28;114279;-67
2022/04/11 02:34:43;;;;;;;6.90;4.25;;;;;;;8.03;46.33;101826.91;4952786;28;114633;-68
2022/04/11 02:37:10;;;;;;;7.90;4.90;;;;;;;8.02;46.61;101836.59;4958224;28;123450;-68
2022/04/11 02:39:37;;;;;;;7.78;4.55;;;;;;;8.03;46.51;101832.19;4941038;28;124361;-68
2022/04/11 02:42:06;;;;;;;8.45;4.75;;;;;;;8.02;46.37;101831.31;4957030;28;114456;-67
2022/04/11 02:44:33;;;;;;;13.65;5.05;;;;;;;8.02;46.62;101830.44;4955567;28;112930;-68
2022/04/11 02:47:01;;;;;;;6.57;4.43;;;;;;;8.02;46.41;101835.72;4952440;28;123862;-67
2022/04/11 02:49:28;;;;;;;8.05;4.95;;;;;;;8.01;46.47;101828.72;4953083;28;123319;-67
2022/04/11 02:52:16;;;;;;;7.75;5.35;;;;;;;7.99;46.50;101832.25;4950284;28;113712;-67
2022/04/11 02:54:43;;;;;;;9.18;5.30;;;;;;;7.98;46.30;101825.22;4950133;28;113441;-68
2022/04/11 02:57:10;;;;;;;10.48;4.97;;;;;;;7.97;46.76;101823.50;4951609;28;123678;-67
2022/04/11 02:59:38;;;;;;;12.77;5.53;;;;;;;7.95;46.45;101820.00;4932408;28;123044;-68
2022/04/11 03:02:05;;;;;;;8.40;4.90;;;;;;;7.94;46.49;101822.66;4949730;28;113599;-68
2022/04/11 03:04:33;;;;;;;10.57;5.57;;;;;;;7.92;46.38;101814.78;4947193;28;113239;-68
2022/04/11 03:07:09;;;;;;;10.82;5.35;;;;;;;7.89;46.42;101814.84;4955731;28;123231;-68
2022/04/11 03:09:36;;;;;;;7.32;5.00;;;;;;;7.87;46.47;101816.63;4936834;28;123783;-68
2022/04/11 03:12:05;;;;;;;9.07;5.15;;;;;;;7.84;46.75;101816.69;4938581;28;114685;-68
2022/04/11 03:14:32;;;;;;;8.52;5.18;;;;;;;7.83;46.52;101820.22;4955039;28;113197;-68
2022/04/11 03:17:00;;;;;;;7.32;4.82;;;;;;;7.81;46.51;101816.75;4935100;28;124094;-68
2022/04/11 03:19:31;;;;;;;9.23;5.18;;;;;;;7.79;46.39;101814.13;4957828;28;123616;-68
2022/04/11 03:21:59;;;;;;;10.50;5.32;;;;;;;7.76;46.46;101808.03;4948916;28;114508;-68
2022/04/11 03:24:26;;;;;;;8.63;5.38;;;;;;;7.74;46.62;101804.56;4914109;28;1155549;-68
2022/04/11 03:26:53;;;;;;;8.93;5.18;;;;;;;7.72;46.93;101803.72;4935985;28;123968;-69
2022/04/11 03:29:28;;;;;;;8.90;5.20;;;;;;;7.69;46.70;101801.16;4937299;28;122738;-68
2022/04/11 03:31:55;;;;;;;10.15;5.30;;;;;;;7.66;46.84;101795.91;4949931;28;113574;-68
2022/04/11 03:34:23;;;;;;;14.88;5.38;;;;;;;7.63;46.49;101795.97;4954261;28;113367;-68
2022/04/11 03:36:53;;;;;;;8.40;5.35;;;;;;;7.58;46.73;101807.47;4937258;28;123532;-67
2022/04/11 03:39:22;;;;;;;9.80;5.45;;;;;;;7.55;46.69;101804.91;4952986;28;123402;-68
2022/04/11 03:41:50;;;;;;;9.43;5.60;;;;;;;7.53;46.74;101801.41;4933712;28;113486;-68
2022/04/11 03:44:23;;;;;;;9.30;5.47;;;;;;;7.50;46.68;101806.75;4950297;28;112923;-68
2022/04/11 03:46:54;;;;;;;8.32;5.40;;;;;;;7.46;46.76;101805.06;4952124;28;123564;-68
2022/04/11 03:49:27;;;;;;;9.18;5.32;;;;;;;7.44;46.91;101814.75;4936174;28;124252;-67
2022/04/11 03:51:58;;;;;;;10.00;5.65;;;;;;;7.40;46.66;101805.13;4952185;28;113405;-68
2022/04/11 03:54:26;;;;;;;11.40;5.55;;;;;;;7.36;47.07;101816.63;4950283;28;113474;-68
2022/04/11 03:56:53;;;;;;;11.68;5.65;;;;;;;7.33;46.83;101814.06;4937363;28;124189;-68
2022/04/11 03:59:20;;;;;;;13.48;5.53;;;;;;;7.29;46.75;101807.06;4934691;28;123645;-68
2022/04/11 04:01:47;;;;;;;12.75;5.80;;;;;;;7.26;46.75;101812.41;4954278;28;113383;-68
2022/04/11 04:04:15;;;;;;;9.88;5.30;;;;;;;7.24;47.05;101816.84;4934580;28;114323;-68
2022/04/11 04:06:42;;;;;;;9.93;5.85;;;;;;;7.20;46.86;101808.97;4951440;28;123158;-68
2022/04/11 04:09:12;;;;;;;13.75;5.53;;;;;;;7.20;46.92;101808.09;4941968;28;123608;-68
2022/04/11 04:11:40;;;;;;;8.90;5.47;;;;;;;7.17;47.01;101814.28;4945766;28;114227;-68
2022/04/11 04:14:36;;;;;;;8.82;5.28;;;;;;;7.13;46.85;101799.41;4937524;28;115969;-68
2022/04/11 04:17:04;;;;;;;11.55;5.20;;;;;;;7.10;47.14;101812.66;4939155;28;123596;-68
2022/04/11 04:19:42;;;;;;;8.98;5.30;;;;;;;7.07;46.86;101810.06;4953804;28;126494;-68
2022/04/11 04:22:14;;;;;;;9.35;5.55;;;;;;;7.06;47.13;101821.47;4937364;28;114452;-68
2022/04/11 04:24:43;;;;;;;7.65;5.18;;;;;;;7.04;47.07;101817.97;4956808;28;113067;-68
2022/04/11 04:27:10;;;;;;;9.23;5.28;;;;;;;7.03;47.06;101816.25;4948146;28;123286;-68
2022/04/11 04:29:39;;;;;;;10.35;5.35;;;;;;;7.01;47.15;101812.78;4957565;28;123004;-68
2022/04/11 04:32:06;;;;;;;11.68;5.53;;;;;;;6.99;47.27;101806.66;4952404;28;113407;-68
2022/04/11 04:34:37;;;;;;;9.68;5.30;;;;;;;6.95;47.17;101807.56;4954614;28;112874;-68
2022/04/11 04:37:05;;;;;;;11.60;5.10;;;;;;;6.91;47.05;101801.50;4951066;28;124082;-69
2022/04/11 04:39:33;;;;;;;11.27;5.53;;;;;;;6.89;47.16;101802.41;4953493;28;123178;-68
2022/04/11 04:42:01;;;;;;;9.73;5.78;;;;;;;6.86;47.37;101797.22;4936214;28;114324;-68
2022/04/11 04:44:29;;;;;;;11.68;5.75;;;;;;;6.83;47.29;101793.69;4953809;28;113750;-68
2022/04/11 04:46:59;;;;;;;10.18;6.05;;;;;;;6.82;47.22;101797.25;4950809;28;123205;-69
2022/04/11 04:49:40;;;;;;;11.30;5.78;;;;;;;6.79;47.31;101792.00;4948828;28;122887;-68
2022/04/11 04:52:10;;;;;;;13.25;5.72;;;;;;;6.80;47.59;101796.38;4954410;28;113100;-68
2022/04/11 04:54:50;;;;;;;11.63;5.60;;;;;;;6.78;47.49;101789.38;4953867;28;112315;-68
2022/04/11 04:57:18;;;;;;;9.18;5.65;;;;;;;6.76;47.35;101789.44;4936533;28;124638;-68
2022/04/11 04:59:46;;;;;;;11.13;5.60;;;;;;;6.75;47.66;101790.31;4935632;28;123116;-68
2022/04/11 05:02:19;;;;;;;9.50;5.75;;;;;;;6.74;47.68;101785.97;4953717;28;114666;-68
2022/04/11 05:04:48;;;;;;;10.15;5.30;;;;;;;6.73;47.41;101784.19;4933119;28;114697;-68
2022/04/11 05:07:15;;;;;;;11.35;6.03;;;;;;;6.73;47.44;101783.34;4932679;28;124274;-68
2022/04/11 05:09:43;;;;;;;11.65;6.20;;;;;;;6.72;47.52;101778.94;4958291;28;122942;-67
2022/04/11 05:12:10;;;;;;;10.88;5.68;;;;;;;6.70;47.71;101786.88;4939698;28;114636;-67
2022/04/11 05:14:38;;;;;;;9.20;5.80;;;;;;;6.71;47.61;101782.50;4944784;28;114766;-67
2022/04/11 05:17:11;;;;;;;11.65;5.97;;;;;;;6.69;47.76;101779.88;4954983;28;123175;-67
2022/04/11 05:19:39;;;;;;;9.18;5.95;;;;;;;6.68;47.44;101786.00;4939541;28;122510;-67
2022/04/11 05:22:06;;;;;;;13.15;6.25;;;;;;;6.66;47.62;101779.91;4948378;28;113073;-68
2022/04/11 05:24:35;;;;;;;9.65;5.40;;;;;;;6.66;47.89;101787.81;4946742;28;113172;-68
2022/04/11 05:27:03;;;;;;;12.82;6.15;;;;;;;6.65;47.67;101788.72;4954378;28;123957;-68
2022/04/11 05:29:30;;;;;;;9.38;5.65;;;;;;;6.65;47.68;101788.72;4952409;28;123157;-68
2022/04/11 05:31:58;;;;;;;13.43;5.82;;;;;;;6.64;47.79;101786.94;4951689;28;113221;-68
2022/04/11 05:34:25;;;;;;;10.77;5.97;;;;;;;6.65;47.98;101793.97;4930786;28;113012;-68
2022/04/11 05:36:55;;;;;;;13.73;6.10;;;;;;;6.66;47.72;101793.06;4949237;28;123182;-68
2022/04/11 05:39:23;;;;;;;11.07;5.95;;;;;;;6.66;47.78;101785.16;4935582;28;124119;-69
2022/04/11 05:41:51;;;;;;;11.13;5.82;;;;;;;6.67;47.93;101786.94;4949259;28;113464;-69
2022/04/11 05:44:18;;;;;;;11.63;5.90;;;;;;;6.68;47.95;101788.66;4949339;28;112869;-69
2022/04/11 05:46:46;;;;;;;10.65;6.10;;;;;;;6.72;48.28;101790.34;4951542;28;124054;-68
2022/04/11 05:49:24;;;;;;;10.98;6.28;;;;;;;6.75;48.10;101790.31;4958365;28;123926;-68
2022/04/11 05:51:52;;;;;;;13.32;6.28;;;;;;;6.80;48.25;101788.50;4930324;28;115302;-69
2022/04/11 05:54:19;;;;;;;12.02;6.60;;;;;;;6.85;48.12;101795.44;4949918;28;114210;-69
2022/04/11 05:56:46;;;;;;;12.80;5.95;;;;;;;6.88;48.32;101792.78;4934103;28;122879;-69
2022/04/11 05:59:15;;;;;;;13.50;6.25;;;;;;;6.93;48.28;101790.94;4951551;28;122796;-68
2022/04/11 06:01:42;;;;;;;10.85;6.07;;;;;;;6.99;48.15;101788.22;4931774;28;113436;-67
2022/04/11 06:04:10;;;;;;;14.68;6.70;;;;;;;7.04;48.37;101786.38;4939913;28;113195;-67
2022/04/11 06:06:37;;;;;;;9.57;5.97;;;;;;;7.08;48.50;101782.78;4951325;28;123049;-67
2022/04/11 06:09:05;;;;;;;13.52;6.38;;;;;;;7.14;48.37;101788.00;4930131;28;123159;-67
2022/04/11 06:11:34;;;;;;;12.38;6.45;;;;;;;7.22;48.60;101801.91;4951231;28;113015;-68
2022/04/11 06:14:01;;;;;;;11.85;6.03;;;;;;;7.27;48.64;101788.69;4947094;28;113883;-68
2022/04/11 06:16:28;;;;;;;12.93;6.18;;;;;;;7.37;48.57;101794.66;4955891;28;123375;-68
2022/04/11 06:18:57;;;;;;;10.82;6.22;;;;;;;7.45;48.82;101795.38;4954180;28;123399;-67
2022/04/11 06:21:25;;;;;;;10.25;6.40;;;;;;;7.54;48.84;101797.88;4950885;28;113739;-67
2022/04/11 06:23:53;;;;;;;9.90;6.10;;;;;;;7.64;48.84;101797.72;4931575;28;113136;-67
2022/04/11 06:26:22;;;;;;;11.15;6.90;;;;;;;7.75;48.76;101798.41;4956574;28;123527;-67
2022/04/11 06:28:49;;;;;;;10.75;6.63;;;;;;;7.86;48.93;101793.81;4942152;28;122888;-67
2022/04/11 06:31:17;;;;;;;11.27;6.45;;;;;;;7.97;48.76;101786.56;4931843;28;113465;-68
2022/04/11 06:33:49;;;;;;;13.15;6.85;;;;;;;8.09;48.80;101785.44;4949090;28;113089;-67
2022/04/11 06:36:19;;;;;;;10.98;6.32;;;;;;;8.22;48.73;101783.44;4933276;28;123627;-66
2022/04/11 06:38:46;;;;;;;11.23;6.13;;;;;;;8.34;49.12;101783.19;4939041;28;124195;-66
2022/04/11 06:41:15;;;;;;;12.10;6.18;;;;;;;8.48;48.73;101784.72;4956072;28;114138;-67
2022/04/11 06:43:42;;;;;;;10.55;6.57;;;;;;;8.62;49.00;101782.63;4954223;28;113721;-66
2022/04/11 06:46:19;;;;;;;9.25;6.05;;;;;;;8.79;48.89;101782.25;4959601;28;127203;-66
2022/04/11 06:48:46;;;;;;;11.07;5.82;;;;;;;8.98;49.32;101781.84;4957087;28;123415;-67
2022/04/11 06:51:13;;;;;;;10.63;5.53;;;;;;;9.14;48.80;101777.94;4941218;28;113312;-67
2022/04/11 06:53:40;;;;;;;12.25;5.63;;;;;;;9.30;48.85;101778.41;4937229;28;114217;-67
2022/04/11 06:56:07;;;;;;;8.13;5.32;;;;;;;9.47;48.57;101781.50;4953279;28;123211;-67
2022/04/11 06:58:35;;;;;;;9.77;5.68;;;;;;;9.64;48.60;101772.28;4953635;28;125268;-67
2022/04/11 07:01:02;;;;;;;9.38;5.32;;;;;;;9.85;48.98;101782.31;4938718;28;114752;-67
2022/04/11 07:03:31;;;;;;;8.85;5.70;;;;;;;10.05;48.73;101783.53;4937240;28;113663;-67
2022/04/11 07:05:58;;;;;;;8.55;5.32;;;;;;;10.25;48.77;101780.34;4931003;28;124768;-67
2022/04/11 07:08:26;;;;;;;10.63;5.53;;;;;;;10.46;48.49;101786.81;4932529;28;123910;-67
2022/04/11 07:10:54;;;;;;;12.52;5.22;;;;;;;10.64;48.33;101788.94;4952391;28;113569;-67
2022/04/11 07:13:21;;;;;;;8.98;5.25;;;;;;;10.83;48.32;101796.28;4938396;28;114886;-67
2022/04/11 07:15:48;;;;;;;8.73;4.97;;;;;;;11.01;47.97;101797.50;4938943;28;123871;-68
2022/04/11 07:18:16;;;;;;;10.80;4.65;;;;;;;11.20;47.88;101792.47;4935064;28;123953;-68
2022/04/11 07:20:43;;;;;;;8.43;4.65;;;;;;;11.36;47.65;101793.72;4936814;28;114688;-68
2022/04/11 07:23:10;;;;;;;7.45;4.57;;;;;;;11.52;47.25;101796.72;4950935;28;113408;-68
2022/04/11 07:25:38;;;;;;;7.05;4.68;;;;;;;11.67;47.11;101792.69;4934272;28;124826;-67
2022/04/11 07:28:08;;;;;;;8.95;4.40;;;;;;;11.83;46.88;101793.91;4931136;28;124395;-68
2022/04/11 07:30:35;;;;;;;6.63;4.32;;;;;;;11.96;46.69;101782.84;4948340;28;114375;-67
2022/04/11 07:33:02;;;;;;;10.20;5.20;;;;;;;12.08;47.09;101783.28;4932065;28;114966;-67
2022/04/11 07:35:30;;;;;;;7.90;4.30;;;;;;;12.24;46.89;101773.00;4947390;28;123925;-67
2022/04/11 07:37:57;;;;;;;8.93;4.65;;;;;;;12.42;47.01;101778.53;4932478;28;123732;-67
2022/04/11 07:40:25;;;;;;;9.05;4.82;;;;;;;12.57;46.57;101777.94;4945405;28;114032;-67
2022/04/11 07:42:52;;;;;;;7.70;4.40;;;;;;;12.72;46.39;101772.97;4933472;28;114669;-67
2022/04/11 07:45:20;;;;;;;8.40;4.68;;;;;;;12.87;46.23;101767.03;4946453;28;123750;-67
2022/04/11 07:47:52;;;;;;;7.95;4.80;;;;;;;13.00;45.80;101767.41;4930235;28;124229;-68
2022/04/11 07:50:20;;;;;;;13.45;5.30;;;;;;;13.09;45.72;101760.84;4934077;28;114316;-67
2022/04/11 07:52:48;;;;;;;8.18;5.18;;;;;;;13.17;45.50;101769.38;4931644;28;113962;-68
2022/04/11 07:55:20;;;;;;;6.93;4.63;;;;;;;13.24;45.57;101760.19;4933003;28;124640;-68
2022/04/11 07:57:47;;;;;;;7.03;4.63;;;;;;;13.32;45.45;101758.16;4949225;28;122811;-68
2022/04/11 08:00:51;;;;;;;8.98;4.95;;;;;;;13.41;45.43;101752.44;4944087;28;114682;-68
2022/04/11 08:03:19;;;;;;;7.95;5.10;;;;;;;13.54;45.46;101759.88;4946000;28;113886;-68
2022/04/11 08:05:47;;;;;;;7.55;5.25;;;;;;;13.63;45.29;101756.81;4952669;28;122918;-68
2022/04/11 08:08:15;;;;;;;11.27;5.00;;;;;;;13.74;45.35;101754.56;4953661;28;122731;-68
2022/04/11 08:10:42;;;;;;;10.70;5.00;;;;;;;13.87;45.08;101744.25;4941077;28;113466;-68
2022/04/11 08:13:10;;;;;;;9.25;4.90;;;;;;;13.98;45.04;101735.78;4952243;28;113295;-69
2022/04/11 08:15:37;;;;;;;6.55;4.75;;;;;;;14.07;44.81;101738.03;4934761;28;123980;-68
2022/04/11 08:18:05;;;;;;;6.88;4.65;;;;;;;14.14;44.41;101736.78;4932846;28;123944;-68
2022/04/11 08:20:32;;;;;;;6.82;4.60;;;;;;;14.18;44.29;101738.41;4949065;28;114474;-68
2022/04/11 08:22:59;;;;;;;6.00;4.38;;;;;;;14.27;44.57;101741.56;4933771;28;114604;-68
2022/04/11 08:25:31;;;;;;;7.05;4.60;;;;;;;14.38;44.44;101729.47;4938415;28;126274;-68
2022/04/11 08:27:58;;;;;;;7.68;4.13;;;;;;;14.51;44.23;101729.75;4934870;28;124001;-68
2022/04/11 08:30:25;;;;;;;7.15;4.38;;;;;;;14.60;44.09;101729.38;4947878;28;114384;-68
2022/04/11 08:32:53;;;;;;;6.28;4.18;;;;;;;14.70;43.94;101728.94;4947467;28;113168;-69
2022/04/11 08:35:21;;;;;;;7.57;4.72;;;;;;;14.74;43.54;101725.16;4948220;28;123043;-69
2022/04/11 08:37:49;;;;;;;6.82;4.00;;;;;;;14.80;43.84;101727.53;4936939;28;123736;-68
2022/04/11 08:40:20;;;;;;;7.68;3.90;;;;;;;14.90;43.97;101720.81;4933544;28;114871;-68
2022/04/11 08:42:49;;;;;;;5.47;3.80;;;;;;;15.06;44.04;101722.72;4934081;28;113719;-68
2022/04/11 08:45:22;;;;;;;5.78;3.60;;;;;;;15.23;43.65;101720.06;4943877;28;124123;-68
2022/04/11 08:47:50;;;;;;;6.35;4.00;;;;;;;15.37;43.47;101719.38;4929848;28;125445;-68
2022/04/11 08:50:18;;;;;;;6.32;3.72;;;;;;;15.48;43.55;101716.13;4934029;28;115759;-68
2022/04/11 08:52:48;;;;;;;5.95;3.65;;;;;;;15.58;43.07;101712.06;4931901;28;114036;-68
2022/04/11 08:55:16;;;;;;;6.72;3.60;;;;;;;15.69;42.85;101709.69;4946668;28;123115;-69
2022/04/11 08:57:43;;;;;;;5.93;3.65;;;;;;;15.76;42.73;101711.13;4931417;28;123986;-69
2022/04/11 09:00:13;;;;;;;6.15;3.38;;;;;;;15.82;42.30;101709.06;4939939;28;114499;-69
2022/04/11 09:02:42;;;;;;;6.75;3.50;;;;;;;15.89;42.48;101710.47;4932862;28;114313;-68
2022/04/11 09:05:10;;;;;;;4.63;3.15;;;;;;;16.01;42.52;101709.81;4929751;28;124077;-69
2022/04/11 09:07:50;;;;;;;6.22;3.40;;;;;;;16.17;42.44;101703.63;4931186;28;124016;-68
2022/04/11 09:10:24;;;;;;;5.72;3.30;;;;;;;16.31;41.98;101706.41;4931589;28;115563;-69
2022/04/11 09:13:11;;;;;;;5.18;3.25;;;;;;;16.41;42.07;101704.94;4930074;28;115133;-68
2022/04/11 09:15:40;;;;;;;6.13;3.38;;;;;;;16.52;42.04;101705.22;4947205;28;123322;-68
2022/04/11 09:18:08;;;;;;;7.13;3.30;;;;;;;16.66;41.97;101695.53;4931523;28;124511;-68
2022/04/11 09:20:35;;;;;;;6.82;3.40;;;;;;;16.75;41.64;101711.06;4931715;28;114503;-68
2022/04/11 09:23:17;;;;;;;6.88;3.50;;;;;;;16.83;41.31;101708.84;4930563;28;114946;-68
2022/04/11 09:25:44;;;;;;;5.60;3.35;;;;;;;16.89;40.87;101702.28;4929547;28;123864;-68
2022/04/11 09:28:12;;;;;;;6.72;3.67;;;;;;;16.95;41.31;101706.41;4931223;28;123889;-68
2022/04/11 09:30:43;;;;;;;6.28;3.10;;;;;;;17.04;40.94;101708.53;4929420;28;114228;-68
2022/04/11 09:33:11;;;;;;;4.78;3.08;;;;;;;17.11;40.65;101707.25;4947244;28;113287;-69
2022/04/11 09:35:49;;;;;;;5.90;3.60;;;;;;;17.19;40.56;101704.97;4928913;28;124313;-69
2022/04/11 09:38:17;;;;;;;7.47;3.38;;;;;;;17.23;40.12;101690.44;4929403;28;123913;-68
2022/04/11 09:40:56;;;;;;;5.28;3.20;;;;;;;17.28;40.36;101688.34;4928930;28;115618;-69
2022/04/11 09:43:28;;;;;;;5.05;3.03;;;;;;;17.38;40.10;101687.81;4945286;28;114295;-69
2022/04/11 09:45:56;;;;;;;6.57;3.20;;;;;;;17.43;39.64;101675.00;4931826;28;123901;-69
2022/04/11 09:48:25;;;;;;;4.63;3.00;;;;;;;17.48;39.92;101672.94;4929158;28;123858;-69
2022/04/11 09:50:54;;;;;;;7.38;3.55;;;;;;;17.55;39.87;101668.03;4928462;28;114276;-69
2022/04/11 09:53:24;;;;;;;5.85;3.05;;;;;;;17.60;39.56;101666.78;4930926;28;114064;-68
2022/04/11 09:55:53;;;;;;;6.38;3.10;;;;;;;17.67;39.47;101667.28;4928618;28;124340;-69
2022/04/11 09:58:22;;;;;;;4.85;2.85;;;;;;;17.68;39.23;101667.19;4929074;28;123845;-70
2022/04/11 10:00:51;;;;;;;4.57;2.70;;;;;;;17.78;39.14;101661.25;4945954;28;114547;-69
2022/04/11 10:03:23;;;;;;;4.55;2.70;;;;;;;17.84;38.89;101650.16;4947012;28;114114;-69
2022/04/11 10:05:51;;;;;;;5.35;2.70;;;;;;;17.92;38.50;101661.28;4929109;28;124031;-69
2022/04/11 10:08:18;;;;;;;4.78;2.90;;;;;;;17.97;38.27;101653.81;4928839;28;124136;-70
2022/04/11 10:10:46;;;;;;;7.30;3.10;;;;;;;18.01;38.47;101660.72;4931838;28;114333;-70
2022/04/11 10:13:15;;;;;;;5.13;2.60;;;;;;;18.07;38.28;101654.94;4933471;28;114305;-70
2022/04/11 10:15:48;;;;;;;5.65;2.67;;;;;;;18.14;38.02;101654.56;4933159;28;123910;-69
2022/04/11 10:18:21;;;;;;;5.55;2.70;;;;;;;18.15;37.50;101646.41;4932596;28;124076;-69
2022/04/11 10:21:02;;;;;;;5.03;2.88;;;;;;;18.13;36.91;101644.81;4934100;28;114037;-69
2022/04/11 10:24:18;;;;;;;3.78;2.40;;;;;;;18.06;37.44;101647.88;4934036;28;113826;-69
2022/04/11 10:26:49;;;;;;;3.60;2.15;;;;;;;18.08;37.36;101634.34;4933953;28;124772;-69
2022/04/11 10:29:34;;;;;;;6.07;2.30;;;;;;;18.12;37.55;101640.38;4933583;28;124145;-69
2022/04/11 10:32:17;;;;;;;4.93;2.65;;;;;;;18.20;38.00;101644.31;4940272;28;114126;-70
2022/04/11 10:34:56;;;;;;;5.20;2.38;;;;;;;18.28;37.17;101635.75;4934888;28;114082;-70
2022/04/11 10:37:29;;;;;;;5.65;2.83;;;;;;;18.35;36.99;101631.72;4932003;28;123894;-69
2022/04/11 10:40:17;;;;;;;7.45;3.00;;;;;;;18.41;36.73;101625.09;4933116;28;122670;-69
2022/04/11 10:43:08;;;;;;;4.78;2.42;;;;;;;18.40;36.63;101634.97;4953900;28;113116;-70
2022/04/11 10:45:39;;;;;;;5.25;2.30;;;;;;;18.42;36.36;101638.41;4952007;28;114382;-68
2022/04/11 10:48:08;;;;;;;5.43;2.30;;;;;;;18.42;36.46;101630.38;4950327;28;123848;-69
2022/04/11 10:50:42;;;;;;;5.72;2.10;;;;;;;18.45;36.25;101622.09;4953289;28;123783;-70
2022/04/11 10:53:09;;;;;;;6.22;2.53;;;;;;;18.51;36.08;101625.34;4939458;28;114449;-69
2022/04/11 10:55:53;;;;;;;5.47;2.50;;;;;;;18.49;36.04;101623.63;4939019;28;114945;-69
2022/04/11 10:58:22;;;;;;;5.03;2.38;;;;;;;18.49;35.67;101618.25;4964371;28;122933;-69
2022/04/11 11:00:51;;;;;;;5.72;2.40;;;;;;;18.46;35.21;101617.63;4948832;28;126768;-69
2022/04/11 11:03:19;;;;;;;6.32;2.30;;;;;;;18.44;34.77;101620.41;4933869;28;114539;-69
2022/04/11 11:06:18;;;;;;;3.97;2.45;;;;;;;18.45;34.85;101616.75;4952379;28;113045;-70
2022/04/11 11:08:46;;;;;;;5.13;2.15;;;;;;;18.46;34.84;101623.84;4943426;28;124181;-69
2022/04/11 11:11:24;;;;;;;5.57;2.40;;;;;;;18.47;34.71;101614.81;4933978;28;123955;-70
2022/04/11 11:13:54;;;;;;;4.47;2.22;;;;;;;18.44;34.08;101608.78;4947143;28;114312;-69
2022/04/11 11:16:34;;;;;;;4.38;2.15;;;;;;;18.45;34.47;101599.78;4953165;28;113377;-69
2022/04/11 11:19:18;;;;;;;5.03;2.35;;;;;;;18.46;34.44;101602.38;4952930;28;123981;-68
2022/04/11 11:21:48;;;;;;;5.25;2.67;;;;;;;18.49;34.31;101590.56;4967692;28;123292;-69
2022/04/11 11:24:16;;;;;;;4.07;2.58;;;;;;;18.48;34.46;101592.41;4952396;28;114387;-69
2022/04/11 11:26:46;;;;;;;4.07;2.50;;;;;;;18.48;34.35;101579.00;4932430;28;114388;-69
2022/04/11 11:29:33;;;;;;;5.78;2.78;;;;;;;18.53;34.24;101575.13;4954752;28;123945;-70
2022/04/11 11:32:04;;;;;;;3.88;2.40;;;;;;;18.58;33.92;101567.66;4934177;28;125135;-69